createdAt,value
2019-05-20T00:01:43.966Z,2.23
2019-05-20T00:04:17.643Z,2.83
2019-05-20T00:06:46.923Z,2.80
2019-05-20T00:09:15.956Z,3.20
2019-05-20T00:11:47.830Z,2.40
2019-05-20T00:14:16.887Z,2.30
2019-05-20T00:16:49.092Z,3.13
2019-05-20T00:19:18.164Z,10.63
2019-05-20T00:21:47.193Z,3.30
2019-05-20T00:24:18.202Z,2.60
2019-05-20T00:26:47.310Z,3.70
2019-05-20T00:29:21.276Z,2.80
2019-05-20T00:31:50.364Z,2.20
2019-05-20T00:34:34.572Z,3.57
2019-05-20T00:36:59.533Z,4.30
2019-05-20T00:39:28.614Z,2.77
2019-05-20T00:42:06.643Z,2.87
2019-05-20T00:44:35.676Z,2.07
2019-05-20T00:47:09.185Z,2.70
2019-05-20T00:49:39.854Z,3.00
2019-05-20T00:52:08.998Z,2.50
2019-05-20T00:54:38.045Z,1.90
2019-05-20T00:57:07.074Z,2.70
2019-05-20T00:59:36.119Z,2.43
2019-05-20T01:02:05.438Z,2.20
2019-05-20T01:04:34.804Z,2.60
2019-05-20T01:07:06.883Z,2.40
2019-05-20T01:09:38.390Z,2.77
2019-05-20T01:12:07.494Z,2.90
2019-05-20T01:14:36.755Z,2.30
2019-05-20T01:17:07.581Z,2.63
2019-05-20T01:19:36.626Z,3.60
2019-05-20T01:22:05.897Z,2.40
2019-05-20T01:24:34.956Z,2.70
2019-05-20T01:27:05.188Z,2.00
2019-05-20T01:29:35.745Z,2.30
2019-05-20T01:32:09.346Z,3.10
2019-05-20T01:34:40.390Z,2.40
2019-05-20T01:37:11.301Z,2.00
2019-05-20T01:39:41.462Z,1.70
2019-05-20T01:42:12.309Z,1.70
2019-05-20T01:44:47.001Z,2.40
2019-05-20T01:47:22.534Z,2.10
2019-05-20T01:49:51.623Z,2.77
2019-05-20T01:52:24.352Z,1.97
2019-05-20T01:54:55.154Z,2.23
2019-05-20T01:57:24.591Z,2.57
2019-05-20T01:59:53.626Z,2.40
2019-05-20T02:02:23.449Z,2.17
2019-05-20T02:04:52.560Z,2.53
2019-05-20T02:07:24.346Z,4.43
2019-05-20T02:09:58.787Z,3.77
2019-05-20T02:12:27.956Z,3.83
2019-05-20T02:15:02.831Z,3.10
2019-05-20T02:17:42.912Z,3.17
2019-05-20T02:20:15.093Z,3.10
2019-05-20T02:22:44.137Z,3.17
2019-05-20T02:25:16.228Z,3.60
2019-05-20T02:27:45.277Z,3.20
2019-05-20T02:30:16.854Z,4.10
2019-05-20T02:32:48.857Z,3.93
2019-05-20T02:35:25.437Z,4.40
2019-05-20T02:37:54.829Z,4.70
2019-05-20T02:40:24.209Z,5.20
2019-05-20T02:42:53.467Z,4.60
2019-05-20T02:45:27.964Z,6.23
2019-05-20T02:47:58.769Z,5.63
2019-05-20T02:50:30.229Z,5.60
2019-05-20T02:53:00.665Z,4.90
2019-05-20T02:55:29.752Z,4.80
2019-05-20T02:58:08.074Z,5.30
2019-05-20T03:00:37.153Z,6.60
2019-05-20T03:03:06.234Z,5.83
2019-05-20T03:05:36.093Z,5.63
2019-05-20T03:08:08.063Z,7.20
2019-05-20T03:10:38.666Z,6.33
2019-05-20T03:13:07.684Z,8.30
2019-05-20T03:15:39.389Z,6.43
2019-05-20T03:18:11.477Z,6.20
2019-05-20T03:20:42.025Z,6.97
2019-05-20T03:23:14.539Z,7.93
2019-05-20T03:25:45.129Z,8.60
2019-05-20T03:28:16.160Z,9.37
2019-05-20T03:30:46.826Z,10.20
2019-05-20T03:33:15.971Z,9.27
2019-05-20T03:35:45.750Z,9.17
2019-05-20T03:38:17.800Z,9.50
2019-05-20T03:40:47.372Z,12.10
2019-05-20T03:43:32.028Z,10.10
2019-05-20T03:46:01.534Z,12.30
2019-05-20T03:48:30.938Z,13.43
2019-05-20T03:51:01.062Z,13.90
2019-05-20T03:53:31.813Z,14.43
2019-05-20T03:56:06.037Z,14.63
2019-05-20T03:58:37.553Z,16.00
2019-05-20T04:01:06.687Z,17.67
2019-05-20T04:03:37.634Z,17.90
2019-05-20T04:06:10.629Z,16.10
2019-05-20T04:08:39.758Z,15.80
2019-05-20T04:11:14.895Z,17.37
2019-05-20T04:13:43.936Z,20.93
2019-05-20T04:16:13.420Z,15.17
2019-05-20T04:18:45.951Z,23.17
2019-05-20T04:21:15.045Z,17.60
2019-05-20T04:23:45.607Z,18.33
2019-05-20T04:26:17.919Z,20.00
2019-05-20T04:28:47.179Z,21.70
2019-05-20T04:31:25.256Z,18.77
2019-05-20T04:33:57.173Z,20.37
2019-05-20T04:36:29.260Z,23.40
2019-05-20T04:39:01.290Z,20.17
2019-05-20T04:41:35.764Z,21.83
2019-05-20T04:44:04.804Z,23.13
2019-05-20T04:46:36.157Z,19.50
2019-05-20T04:49:12.663Z,22.43
2019-05-20T04:51:46.090Z,23.10
2019-05-20T04:54:17.205Z,20.67
2019-05-20T04:56:49.116Z,19.07
2019-05-20T04:59:19.616Z,19.77
2019-05-20T05:01:51.523Z,20.40
2019-05-20T05:04:20.966Z,20.40
2019-05-20T05:06:53.000Z,20.57
2019-05-20T05:09:27.847Z,23.17
2019-05-20T05:12:00.124Z,21.80
2019-05-20T05:14:34.534Z,18.73
2019-05-20T05:17:04.958Z,22.07
2019-05-20T05:19:36.549Z,21.07
2019-05-20T05:22:05.647Z,17.60
2019-05-20T05:24:42.360Z,22.23
2019-05-20T05:27:11.481Z,20.40
2019-05-20T05:29:41.196Z,18.70
2019-05-20T05:32:12.144Z,19.70
2019-05-20T05:34:43.471Z,21.00
2019-05-20T05:37:15.716Z,19.20
2019-05-20T05:39:46.942Z,22.03
2019-05-20T05:42:24.699Z,24.00
2019-05-20T05:44:53.995Z,21.43
2019-05-20T05:47:23.205Z,20.50
2019-05-20T05:49:52.373Z,21.37
2019-05-20T05:52:22.979Z,20.47
2019-05-20T05:54:55.681Z,21.37
2019-05-20T05:57:34.305Z,20.53
2019-05-20T06:00:07.264Z,19.67
2019-05-20T06:02:40.474Z,20.07
2019-05-20T06:05:10.753Z,22.37
2019-05-20T06:07:39.791Z,20.23
2019-05-20T06:10:10.280Z,20.90
2019-05-20T06:12:45.988Z,17.50
2019-05-20T06:15:16.347Z,18.40
2019-05-20T06:17:46.565Z,18.00
2019-05-20T06:20:18.057Z,22.30
2019-05-20T06:22:47.127Z,18.07
2019-05-20T06:25:16.776Z,21.17
2019-05-20T06:27:48.681Z,21.00
2019-05-20T06:30:18.520Z,20.50
2019-05-20T06:32:48.783Z,19.37
2019-05-20T06:35:18.444Z,19.10
2019-05-20T06:37:55.606Z,20.83
2019-05-20T06:40:26.733Z,20.23
2019-05-20T06:43:01.691Z,20.53
2019-05-20T06:45:31.301Z,22.27
2019-05-20T06:48:17.795Z,24.27
2019-05-20T06:50:47.752Z,21.67
2019-05-20T06:53:17.071Z,19.47
2019-05-20T06:55:48.694Z,18.00
2019-05-20T06:58:21.119Z,20.33
2019-05-20T07:00:53.956Z,18.57
2019-05-20T07:03:23.136Z,22.70
2019-05-20T07:05:52.240Z,22.60
2019-05-20T07:08:21.798Z,23.40
2019-05-20T07:10:53.126Z,20.50
2019-05-20T07:13:23.752Z,22.37
2019-05-20T07:15:58.861Z,20.73
2019-05-20T07:18:33.985Z,23.43
2019-05-20T07:21:05.078Z,24.20
2019-05-20T07:23:38.031Z,20.20
2019-05-20T07:26:07.558Z,26.60
2019-05-20T07:28:38.321Z,23.20
2019-05-20T07:31:16.962Z,21.17
2019-05-20T07:33:47.379Z,21.23
2019-05-20T07:36:17.198Z,19.50
2019-05-20T07:38:50.210Z,19.00
2019-05-20T07:41:20.411Z,20.60
2019-05-20T07:43:50.928Z,19.03
2019-05-20T07:46:20.527Z,21.40
2019-05-20T07:48:50.235Z,19.40
2019-05-20T07:51:19.871Z,20.70
2019-05-20T07:53:50.657Z,26.63
2019-05-20T07:56:22.950Z,18.67
2019-05-20T07:58:54.366Z,17.53
2019-05-20T08:01:24.471Z,23.23
2019-05-20T08:03:53.623Z,19.73
2019-05-20T08:06:27.060Z,19.77
2019-05-20T08:08:56.240Z,18.93
2019-05-20T08:11:25.649Z,20.40
2019-05-20T08:13:59.669Z,23.43
2019-05-20T08:16:41.056Z,17.03
2019-05-20T08:19:10.142Z,15.13
2019-05-20T08:21:39.609Z,18.63
2019-05-20T08:24:08.707Z,18.80
2019-05-20T08:26:40.863Z,19.43
2019-05-20T08:29:14.859Z,19.57
2019-05-20T08:31:49.372Z,18.47
2019-05-20T08:34:22.476Z,18.53
2019-05-20T08:36:51.572Z,22.00
2019-05-20T08:39:21.022Z,21.50
2019-05-20T08:41:52.114Z,22.97
2019-05-20T08:44:22.755Z,23.40
2019-05-20T08:46:52.726Z,21.10
2019-05-20T08:49:22.140Z,28.63
2019-05-20T08:51:52.843Z,26.50
2019-05-20T08:54:22.196Z,22.40
2019-05-20T08:56:52.972Z,21.90
2019-05-20T08:59:22.279Z,25.60
2019-05-20T09:01:51.328Z,27.17
2019-05-20T09:04:21.575Z,30.03
2019-05-20T09:06:52.263Z,26.10
2019-05-20T09:09:23.155Z,28.93
2019-05-20T09:11:52.609Z,28.97
2019-05-20T09:14:21.757Z,30.73
2019-05-20T09:16:52.455Z,30.80
2019-05-20T09:19:27.751Z,30.60
2019-05-20T09:21:58.215Z,32.70
2019-05-20T09:24:33.369Z,32.60
2019-05-20T09:27:05.779Z,37.57
2019-05-20T09:29:37.990Z,27.33
2019-05-20T09:32:22.822Z,25.33
2019-05-20T09:34:51.929Z,31.87
2019-05-20T09:37:21.105Z,30.93
2019-05-20T09:39:50.105Z,29.63
2019-05-20T09:42:19.229Z,30.60
2019-05-20T09:44:51.098Z,33.07
2019-05-20T09:47:26.584Z,28.40
2019-05-20T09:49:58.326Z,30.33
2019-05-20T09:52:27.691Z,29.17
2019-05-20T09:54:57.447Z,27.80
2019-05-20T09:57:29.678Z,30.20
2019-05-20T09:59:58.934Z,31.87
2019-05-20T10:02:35.153Z,29.20
2019-05-20T10:05:05.917Z,29.77
2019-05-20T10:07:38.107Z,36.13
2019-05-20T10:10:07.290Z,30.40
2019-05-20T10:12:46.024Z,30.20
2019-05-20T10:15:07.648Z,34.53
2019-05-20T10:17:36.936Z,31.03
2019-05-20T10:20:07.621Z,30.63
2019-05-20T10:22:41.097Z,30.77
2019-05-20T10:25:10.397Z,33.73
2019-05-20T10:27:39.517Z,32.80
2019-05-20T10:30:09.267Z,33.83
2019-05-20T10:32:39.653Z,35.60
2019-05-20T10:35:10.876Z,35.00
2019-05-20T10:37:39.931Z,32.90
2019-05-20T10:40:12.666Z,30.70
2019-05-20T10:42:43.752Z,39.80
2019-05-20T10:45:13.123Z,31.30
2019-05-20T10:47:43.991Z,32.20
2019-05-20T10:50:24.138Z,34.73
2019-05-20T10:52:53.131Z,32.63
2019-05-20T10:55:24.260Z,34.13
2019-05-20T10:57:57.900Z,32.50
2019-05-20T11:00:30.422Z,36.93
2019-05-20T11:03:02.390Z,34.10
2019-05-20T11:05:31.720Z,33.20
2019-05-20T11:08:01.507Z,32.30
2019-05-20T11:10:30.846Z,29.93
2019-05-20T11:13:00.421Z,31.90
2019-05-20T11:15:29.928Z,29.07
2019-05-20T11:18:00.577Z,35.57
2019-05-20T11:20:31.965Z,39.80
2019-05-20T11:23:01.531Z,35.97
2019-05-20T11:25:31.054Z,31.13
2019-05-20T11:28:00.278Z,34.03
2019-05-20T11:30:31.646Z,37.43
2019-05-20T11:33:03.647Z,32.47
2019-05-20T11:35:38.991Z,35.10
2019-05-20T11:38:08.088Z,35.43
2019-05-20T11:40:37.178Z,34.40
2019-05-20T11:43:06.255Z,32.17
2019-05-20T11:45:39.462Z,35.47
2019-05-20T11:48:11.690Z,36.63
2019-05-20T11:50:48.107Z,30.70
2019-05-20T11:53:18.114Z,35.00
2019-05-20T11:55:59.208Z,31.03
2019-05-20T11:58:31.094Z,30.83
2019-05-20T12:01:01.784Z,33.03
2019-05-20T12:03:32.529Z,29.47
2019-05-20T12:06:03.004Z,32.03
2019-05-20T12:08:35.394Z,31.53
2019-05-20T12:11:06.600Z,33.83
2019-05-20T12:13:38.869Z,34.33
2019-05-20T12:16:10.286Z,35.13
2019-05-20T12:18:40.779Z,36.83
2019-05-20T12:21:21.137Z,32.97
2019-05-20T12:23:51.432Z,33.93
2019-05-20T12:26:22.922Z,44.10
2019-05-20T12:28:57.949Z,36.93
2019-05-20T12:31:29.109Z,37.27
2019-05-20T12:33:59.471Z,42.70
2019-05-20T12:36:28.564Z,37.80
2019-05-20T12:39:00.057Z,39.67
2019-05-20T12:41:29.571Z,43.73
2019-05-20T12:44:12.279Z,38.13
2019-05-20T12:46:29.728Z,40.70
2019-05-20T12:48:59.211Z,34.83
2019-05-20T12:51:29.939Z,41.30
2019-05-20T12:54:00.668Z,40.87
2019-05-20T12:56:29.889Z,42.70
2019-05-20T12:59:00.408Z,43.87
2019-05-20T13:01:35.097Z,36.20
2019-05-20T13:04:04.319Z,43.77
2019-05-20T13:06:33.497Z,37.07
2019-05-20T13:09:02.767Z,42.30
2019-05-20T13:11:32.443Z,41.33
2019-05-20T13:14:02.613Z,40.20
2019-05-20T13:16:31.962Z,38.60
2019-05-20T13:19:07.473Z,37.53
2019-05-20T13:21:36.808Z,42.10
2019-05-20T13:24:06.574Z,42.07
2019-05-20T13:26:36.158Z,38.30
2019-05-20T13:29:08.954Z,41.87
2019-05-20T13:31:38.804Z,42.13
2019-05-20T13:34:07.903Z,42.60
2019-05-20T13:36:37.309Z,49.77
2019-05-20T13:39:08.532Z,42.90
2019-05-20T13:41:40.455Z,48.17
2019-05-20T13:44:13.913Z,43.47
2019-05-20T13:46:46.201Z,44.20
2019-05-20T13:49:16.005Z,44.27
2019-05-20T13:51:51.078Z,45.90
2019-05-20T13:54:20.202Z,47.17
2019-05-20T13:56:49.500Z,48.03
2019-05-20T13:59:20.459Z,47.70
2019-05-20T14:01:49.516Z,43.17
2019-05-20T14:04:18.652Z,52.87
2019-05-20T14:06:47.729Z,42.60
2019-05-20T14:09:16.891Z,46.97
2019-05-20T14:11:45.937Z,45.97
2019-05-20T14:14:16.393Z,43.83
2019-05-20T14:16:45.989Z,45.03
2019-05-20T14:19:15.735Z,48.40
2019-05-20T14:21:44.889Z,47.10
2019-05-20T14:24:20.129Z,47.80
2019-05-20T14:26:49.423Z,42.53
2019-05-20T14:29:18.426Z,44.23
2019-05-20T14:31:48.443Z,45.23
2019-05-20T14:34:18.571Z,42.83
2019-05-20T14:36:52.660Z,44.70
2019-05-20T14:39:20.407Z,40.40
2019-05-20T14:41:49.545Z,53.07
2019-05-20T14:44:18.619Z,45.70
2019-05-20T14:46:48.150Z,59.60
2019-05-20T14:49:19.354Z,45.07
2019-05-20T14:51:53.299Z,43.43
2019-05-20T14:54:22.363Z,39.90
2019-05-20T14:56:56.171Z,39.67
2019-05-20T14:59:29.994Z,36.77
2019-05-20T15:01:59.094Z,43.87
2019-05-20T15:04:28.189Z,42.47
2019-05-20T15:06:58.145Z,42.70
2019-05-20T15:09:31.954Z,44.00
2019-05-20T15:12:01.372Z,51.47
2019-05-20T15:14:32.636Z,50.83
2019-05-20T15:17:03.902Z,48.90
2019-05-20T15:19:35.525Z,46.73
2019-05-20T15:22:04.713Z,53.80
2019-05-20T15:24:33.901Z,48.90
2019-05-20T15:27:03.079Z,47.23
2019-05-20T15:29:32.149Z,46.73
2019-05-20T15:32:01.431Z,53.23
2019-05-20T15:34:33.808Z,55.33
2019-05-20T15:37:07.995Z,48.60
2019-05-20T15:39:37.049Z,50.77
2019-05-20T15:42:07.562Z,49.33
2019-05-20T15:44:38.228Z,45.63
2019-05-20T15:47:07.259Z,43.87
2019-05-20T15:49:36.349Z,50.27
2019-05-20T15:52:05.518Z,49.20
2019-05-20T15:54:36.363Z,47.27
2019-05-20T15:57:06.300Z,51.63
2019-05-20T15:59:45.486Z,51.63
2019-05-20T16:02:09.208Z,47.00
2019-05-20T16:04:38.332Z,50.93
2019-05-20T16:07:07.452Z,45.60
2019-05-20T16:09:40.347Z,47.10
2019-05-20T16:12:09.801Z,45.13
2019-05-20T16:14:38.891Z,49.67
2019-05-20T16:17:07.969Z,45.47
2019-05-20T16:19:37.055Z,48.53
2019-05-20T16:22:06.978Z,47.40
2019-05-20T16:24:36.415Z,45.20
2019-05-20T16:27:06.884Z,46.73
2019-05-20T16:29:36.014Z,50.17
2019-05-20T16:32:14.396Z,49.90
2019-05-20T16:34:44.983Z,50.30
2019-05-20T16:37:16.493Z,51.30
2019-05-20T16:39:45.951Z,51.83
2019-05-20T16:42:15.040Z,55.40
2019-05-20T16:44:46.656Z,43.00
2019-05-20T16:47:15.725Z,48.87
2019-05-20T16:49:44.831Z,37.63
2019-05-20T16:52:17.355Z,37.70
2019-05-20T16:54:50.790Z,38.57
2019-05-20T16:57:25.017Z,36.20
2019-05-20T16:59:54.097Z,38.00
2019-05-20T17:02:23.140Z,43.63
2019-05-20T17:04:52.367Z,34.30
2019-05-20T17:07:25.068Z,35.47
2019-05-20T17:09:54.175Z,33.63
2019-05-20T17:12:27.753Z,35.20
2019-05-20T17:14:58.397Z,34.90
2019-05-20T17:17:27.535Z,38.33
2019-05-20T17:19:56.596Z,41.47
2019-05-20T17:22:27.333Z,40.33
2019-05-20T17:25:04.114Z,42.30
2019-05-20T17:27:38.700Z,47.50
2019-05-20T17:30:09.629Z,46.07
2019-05-20T17:32:41.567Z,43.37
2019-05-20T17:35:20.820Z,45.40
2019-05-20T17:37:50.023Z,51.40
2019-05-20T17:40:20.495Z,47.60
2019-05-20T17:42:52.568Z,46.30
2019-05-20T17:45:24.096Z,49.40
2019-05-20T17:47:53.525Z,50.00
2019-05-20T17:50:25.652Z,47.53
2019-05-20T17:52:56.067Z,54.50
2019-05-20T17:55:31.066Z,56.07
2019-05-20T17:58:05.330Z,49.27
2019-05-20T18:00:34.544Z,53.47
2019-05-20T18:03:04.041Z,53.07
2019-05-20T18:05:33.887Z,59.93
2019-05-20T18:08:02.942Z,57.67
2019-05-20T18:10:31.991Z,64.30
2019-05-20T18:13:01.857Z,58.90
2019-05-20T18:15:30.955Z,61.97
2019-05-20T18:18:00.411Z,69.10
2019-05-20T18:20:29.734Z,60.37
2019-05-20T18:23:04.085Z,65.40
2019-05-20T18:25:33.144Z,57.27
2019-05-20T18:28:04.204Z,65.60
2019-05-20T18:30:33.292Z,64.17
2019-05-20T18:33:02.381Z,62.70
2019-05-20T18:35:31.598Z,68.97
2019-05-20T18:38:01.130Z,70.20
2019-05-20T18:40:30.656Z,66.23
2019-05-20T18:43:00.790Z,63.17
2019-05-20T18:45:29.853Z,75.97
2019-05-20T18:47:58.940Z,72.77
2019-05-20T18:50:29.243Z,74.30
2019-05-20T18:53:00.154Z,63.50
2019-05-20T18:55:35.008Z,57.57
2019-05-20T18:58:05.893Z,69.20
2019-05-20T19:00:38.172Z,77.40
2019-05-20T19:03:07.233Z,73.20
2019-05-20T19:05:38.855Z,62.30
2019-05-20T19:08:14.256Z,69.90
2019-05-20T19:10:43.312Z,65.77
2019-05-20T19:13:12.389Z,65.67
2019-05-20T19:15:41.495Z,66.33
2019-05-20T19:18:12.480Z,75.50
2019-05-20T19:20:43.261Z,67.60
2019-05-20T19:23:12.293Z,75.87
2019-05-20T19:25:49.024Z,67.93
2019-05-20T19:28:18.617Z,82.83
2019-05-20T19:30:47.710Z,67.10
2019-05-20T19:33:18.222Z,80.73
2019-05-20T19:35:49.439Z,86.47
2019-05-20T19:38:31.738Z,77.33
2019-05-20T19:41:00.903Z,71.10
2019-05-20T19:43:30.015Z,77.27
2019-05-20T19:45:59.522Z,80.50
2019-05-20T19:48:28.586Z,85.53
2019-05-20T19:50:57.703Z,83.30
2019-05-20T19:53:30.044Z,76.67
2019-05-20T19:56:02.251Z,81.40
2019-05-20T19:58:31.748Z,81.87
2019-05-20T20:01:01.893Z,80.20
2019-05-20T20:03:31.415Z,70.23
2019-05-20T20:06:03.668Z,71.90
2019-05-20T20:08:32.731Z,81.37
2019-05-20T20:11:01.796Z,79.73
2019-05-20T20:13:33.935Z,79.43
2019-05-20T20:16:08.028Z,75.63
2019-05-20T20:18:32.790Z,69.27
2019-05-20T20:21:01.884Z,80.13
2019-05-20T20:23:31.466Z,74.33
2019-05-20T20:26:04.867Z,68.57
2019-05-20T20:28:33.987Z,77.13
2019-05-20T20:31:03.132Z,75.50
2019-05-20T20:33:32.208Z,77.73
2019-05-20T20:36:01.321Z,75.33
2019-05-20T20:38:30.433Z,83.70
2019-05-20T20:40:59.530Z,70.27
2019-05-20T20:43:32.158Z,76.63
2019-05-20T20:45:59.512Z,78.17
2019-05-20T20:48:31.620Z,77.17
2019-05-20T20:51:01.035Z,80.90
2019-05-20T20:53:35.254Z,76.57
2019-05-20T20:56:06.172Z,70.07
2019-05-20T20:58:35.705Z,65.60
2019-05-20T21:01:06.810Z,68.17
2019-05-20T21:03:36.897Z,65.97
2019-05-20T21:06:06.060Z,64.97
2019-05-20T21:08:35.570Z,61.87
2019-05-20T21:11:08.513Z,71.17
2019-05-20T21:13:38.684Z,58.57
2019-05-20T21:16:07.772Z,54.70
2019-05-20T21:18:39.833Z,70.93
2019-05-20T21:21:08.861Z,72.80
2019-05-20T21:23:38.188Z,60.70
2019-05-20T21:26:10.979Z,64.83
2019-05-20T21:28:43.508Z,61.23
2019-05-20T21:31:31.535Z,68.30
2019-05-20T21:34:04.971Z,69.03
2019-05-20T21:36:47.316Z,63.47
2019-05-20T21:39:07.454Z,57.30
2019-05-20T21:41:39.056Z,52.67
2019-05-20T21:44:08.231Z,46.17
2019-05-20T21:47:14.606Z,53.60
2019-05-20T21:49:47.074Z,59.70
2019-05-20T21:52:16.337Z,40.70
2019-05-20T21:54:46.691Z,47.63
2019-05-20T21:57:20.243Z,52.67
2019-05-20T21:59:49.839Z,52.10
2019-05-20T22:02:20.639Z,47.03
2019-05-20T22:04:49.793Z,46.13
2019-05-20T22:07:20.288Z,61.03
2019-05-20T22:09:56.987Z,48.90
2019-05-20T22:12:36.632Z,54.10
2019-05-20T22:15:06.537Z,49.87
2019-05-20T22:17:39.529Z,59.73
2019-05-20T22:20:08.834Z,47.93
2019-05-20T22:22:46.441Z,59.10
2019-05-20T22:25:17.977Z,45.70
2019-05-20T22:27:51.230Z,45.83
2019-05-20T22:30:20.341Z,54.27
2019-05-20T22:32:50.513Z,46.17
2019-05-20T22:35:23.338Z,41.83
2019-05-20T22:37:52.375Z,47.57
2019-05-20T22:40:21.439Z,44.70
2019-05-20T22:42:50.472Z,49.67
2019-05-20T22:45:19.570Z,50.77
2019-05-20T22:47:48.623Z,39.70
2019-05-20T22:50:17.672Z,53.50
2019-05-20T22:52:49.687Z,38.30
2019-05-20T22:55:18.747Z,46.00
2019-05-20T22:57:47.818Z,37.40
2019-05-20T23:00:16.849Z,35.40
2019-05-20T23:02:45.947Z,34.63
2019-05-20T23:05:15.866Z,31.30
2019-05-20T23:07:45.026Z,30.67
2019-05-20T23:10:14.310Z,27.90
2019-05-20T23:12:45.041Z,18.67
2019-05-20T23:15:15.614Z,17.73
2019-05-20T23:17:47.434Z,16.33
2019-05-20T23:20:18.270Z,16.03
2019-05-20T23:22:52.541Z,17.43
2019-05-20T23:25:21.575Z,14.93
2019-05-20T23:27:52.423Z,18.30
2019-05-20T23:30:21.541Z,19.57
2019-05-20T23:32:51.056Z,24.93
2019-05-20T23:35:21.440Z,21.33
2019-05-20T23:37:54.637Z,19.00
2019-05-20T23:40:24.980Z,20.73
2019-05-20T23:42:54.305Z,22.90
2019-05-20T23:45:23.961Z,26.30
2019-05-20T23:47:57.612Z,22.90
2019-05-20T23:50:30.583Z,19.60
2019-05-20T23:53:01.407Z,23.13
2019-05-20T23:55:30.462Z,22.20
2019-05-20T23:58:03.585Z,25.30
